sensor_id;sensor_type;location;lat;lon;timestamp;temperature;humidity
55173;DHT22;41061;52.822;6.860;2023-12-04T00:00:37;0.60;99.90
55173;DHT22;41061;52.822;6.860;2023-12-04T00:03:03;0.60;99.90
55173;DHT22;41061;52.822;6.860;2023-12-04T00:05:28;0.60;99.90
55173;DHT22;41061;52.822;6.860;2023-12-04T00:07:54;0.60;99.90
55173;DHT22;41061;52.822;6.860;2023-12-04T00:10:20;0.60;99.90
55173;DHT22;41061;52.822;6.860;2023-12-04T00:12:46;0.50;99.90
55173;DHT22;41061;52.822;6.860;2023-12-04T00:15:12;0.50;99.90
55173;DHT22;41061;52.822;6.860;2023-12-04T00:17:37;0.60;99.90
55173;DHT22;41061;52.822;6.860;2023-12-04T00:20:09;0.60;99.90
55173;DHT22;41061;52.822;6.860;2023-12-04T00:22:35;0.60;99.90
55173;DHT22;41061;52.822;6.860;2023-12-04T00:25:02;0.50;99.90
55173;DHT22;41061;52.822;6.860;2023-12-04T00:27:29;0.50;99.90
55173;DHT22;41061;52.822;6.860;2023-12-04T00:29:55;0.50;99.90
55173;DHT22;41061;52.822;6.860;2023-12-04T00:32:20;0.50;99.90
55173;DHT22;41061;52.822;6.860;2023-12-04T00:34:46;0.60;99.90
55173;DHT22;41061;52.822;6.860;2023-12-04T00:37:12;0.60;99.90
55173;DHT22;41061;52.822;6.860;2023-12-04T00:39:38;0.60;99.90
55173;DHT22;41061;52.822;6.860;2023-12-04T00:42:04;0.60;99.90
55173;DHT22;41061;52.822;6.860;2023-12-04T00:44:29;0.60;99.90
55173;DHT22;41061;52.822;6.860;2023-12-04T00:46:55;0.60;99.90
55173;DHT22;41061;52.822;6.860;2023-12-04T00:49:21;0.60;99.90
55173;DHT22;41061;52.822;6.860;2023-12-04T00:51:46;0.60;99.90
55173;DHT22;41061;52.822;6.860;2023-12-04T00:54:12;0.60;99.90
55173;DHT22;41061;52.822;6.860;2023-12-04T00:56:38;0.50;99.90
55173;DHT22;41061;52.822;6.860;2023-12-04T00:59:05;0.60;99.90
55173;DHT22;41061;52.822;6.860;2023-12-04T01:01:32;0.60;99.90
55173;DHT22;41061;52.822;6.860;2023-12-04T01:03:58;0.60;99.90
55173;DHT22;41061;52.822;6.860;2023-12-04T01:06:25;0.60;99.90
55173;DHT22;41061;52.822;6.860;2023-12-04T01:08:52;0.60;99.90
55173;DHT22;41061;52.822;6.860;2023-12-04T01:11:18;0.60;99.90
55173;DHT22;41061;52.822;6.860;2023-12-04T01:13:45;0.60;99.90
55173;DHT22;41061;52.822;6.860;2023-12-04T01:16:11;0.50;99.90
55173;DHT22;41061;52.822;6.860;2023-12-04T01:18:37;0.60;99.90
55173;DHT22;41061;52.822;6.860;2023-12-04T01:21:03;0.60;99.90
55173;DHT22;41061;52.822;6.860;2023-12-04T01:23:29;0.60;99.90
55173;DHT22;41061;52.822;6.860;2023-12-04T01:25:54;0.60;99.90
55173;DHT22;41061;52.822;6.860;2023-12-04T01:28:20;0.60;99.90
55173;DHT22;41061;52.822;6.860;2023-12-04T01:30:46;0.60;99.90
55173;DHT22;41061;52.822;6.860;2023-12-04T01:33:11;0.60;99.90
55173;DHT22;41061;52.822;6.860;2023-12-04T01:35:37;0.70;99.90
55173;DHT22;41061;52.822;6.860;2023-12-04T01:38:03;0.60;99.90
55173;DHT22;41061;52.822;6.860;2023-12-04T01:40:28;0.60;99.90
55173;DHT22;41061;52.822;6.860;2023-12-04T01:42:54;0.60;99.90
55173;DHT22;41061;52.822;6.860;2023-12-04T01:45:20;0.70;99.90
55173;DHT22;41061;52.822;6.860;2023-12-04T01:47:46;0.70;99.90
55173;DHT22;41061;52.822;6.860;2023-12-04T01:50:12;0.70;99.90
55173;DHT22;41061;52.822;6.860;2023-12-04T01:52:40;0.60;99.90
55173;DHT22;41061;52.822;6.860;2023-12-04T01:55:06;0.70;99.90
55173;DHT22;41061;52.822;6.860;2023-12-04T01:57:32;0.70;99.90
55173;DHT22;41061;52.822;6.860;2023-12-04T01:59:59;0.60;99.90
55173;DHT22;41061;52.822;6.860;2023-12-04T02:02:25;0.60;99.90
55173;DHT22;41061;52.822;6.860;2023-12-04T02:04:53;0.70;99.90
55173;DHT22;41061;52.822;6.860;2023-12-04T02:07:19;0.70;99.90
55173;DHT22;41061;52.822;6.860;2023-12-04T02:09:46;0.70;99.90
55173;DHT22;41061;52.822;6.860;2023-12-04T02:12:12;0.70;99.90
55173;DHT22;41061;52.822;6.860;2023-12-04T02:14:38;0.70;99.90
55173;DHT22;41061;52.822;6.860;2023-12-04T02:17:05;0.70;99.90
55173;DHT22;41061;52.822;6.860;2023-12-04T02:19:32;0.60;99.90
55173;DHT22;41061;52.822;6.860;2023-12-04T02:21:58;0.70;99.90
55173;DHT22;41061;52.822;6.860;2023-12-04T02:24:24;0.70;99.90
55173;DHT22;41061;52.822;6.860;2023-12-04T02:26:55;0.70;99.90
55173;DHT22;41061;52.822;6.860;2023-12-04T02:29:32;0.70;99.90
55173;DHT22;41061;52.822;6.860;2023-12-04T02:32:02;0.70;99.90
55173;DHT22;41061;52.822;6.860;2023-12-04T02:34:29;0.70;99.90
55173;DHT22;41061;52.822;6.860;2023-12-04T02:36:58;0.70;99.90
55173;DHT22;41061;52.822;6.860;2023-12-04T02:39:24;0.70;99.90
55173;DHT22;41061;52.822;6.860;2023-12-04T02:41:50;0.80;99.90
55173;DHT22;41061;52.822;6.860;2023-12-04T02:44:16;0.80;99.90
55173;DHT22;41061;52.822;6.860;2023-12-04T02:46:42;0.70;99.90
55173;DHT22;41061;52.822;6.860;2023-12-04T02:49:08;0.80;99.90
55173;DHT22;41061;52.822;6.860;2023-12-04T02:51:34;0.80;99.90
55173;DHT22;41061;52.822;6.860;2023-12-04T02:54:00;0.80;99.90
55173;DHT22;41061;52.822;6.860;2023-12-04T02:56:26;0.80;99.90
55173;DHT22;41061;52.822;6.860;2023-12-04T02:58:51;0.80;99.90
55173;DHT22;41061;52.822;6.860;2023-12-04T03:01:17;0.80;99.90
55173;DHT22;41061;52.822;6.860;2023-12-04T03:03:43;0.80;99.90
55173;DHT22;41061;52.822;6.860;2023-12-04T03:06:08;0.90;99.90
55173;DHT22;41061;52.822;6.860;2023-12-04T03:08:34;0.80;99.90
55173;DHT22;41061;52.822;6.860;2023-12-04T03:11:01;0.80;99.90
55173;DHT22;41061;52.822;6.860;2023-12-04T03:13:28;0.80;99.90
55173;DHT22;41061;52.822;6.860;2023-12-04T03:15:54;0.80;99.90
55173;DHT22;41061;52.822;6.860;2023-12-04T03:18:20;0.80;99.90
55173;DHT22;41061;52.822;6.860;2023-12-04T03:20:45;0.80;99.90
55173;DHT22;41061;52.822;6.860;2023-12-04T03:23:11;0.80;99.90
55173;DHT22;41061;52.822;6.860;2023-12-04T03:25:37;0.80;99.90
55173;DHT22;41061;52.822;6.860;2023-12-04T03:28:02;0.80;99.90
55173;DHT22;41061;52.822;6.860;2023-12-04T03:30:28;0.80;99.90
55173;DHT22;41061;52.822;6.860;2023-12-04T03:32:54;0.80;99.90
55173;DHT22;41061;52.822;6.860;2023-12-04T03:35:19;0.80;99.90
55173;DHT22;41061;52.822;6.860;2023-12-04T03:37:45;0.80;99.90
55173;DHT22;41061;52.822;6.860;2023-12-04T03:40:11;0.80;99.90
55173;DHT22;41061;52.822;6.860;2023-12-04T03:42:37;0.80;99.90
55173;DHT22;41061;52.822;6.860;2023-12-04T03:45:03;0.80;99.90
55173;DHT22;41061;52.822;6.860;2023-12-04T03:47:29;0.80;99.90
55173;DHT22;41061;52.822;6.860;2023-12-04T03:49:55;0.80;99.90
55173;DHT22;41061;52.822;6.860;2023-12-04T03:52:20;0.80;99.90
55173;DHT22;41061;52.822;6.860;2023-12-04T03:54:46;0.80;99.90
55173;DHT22;41061;52.822;6.860;2023-12-04T03:57:12;0.80;99.90
55173;DHT22;41061;52.822;6.860;2023-12-04T03:59:37;0.80;99.90
55173;DHT22;41061;52.822;6.860;2023-12-04T04:02:03;0.80;99.90
55173;DHT22;41061;52.822;6.860;2023-12-04T04:04:29;0.80;99.90
55173;DHT22;41061;52.822;6.860;2023-12-04T04:06:55;0.70;99.90
55173;DHT22;41061;52.822;6.860;2023-12-04T04:09:20;0.70;99.90
55173;DHT22;41061;52.822;6.860;2023-12-04T04:11:46;0.70;99.90
55173;DHT22;41061;52.822;6.860;2023-12-04T04:14:12;0.70;99.90
55173;DHT22;41061;52.822;6.860;2023-12-04T04:16:38;0.70;99.90
55173;DHT22;41061;52.822;6.860;2023-12-04T04:19:04;0.70;99.90
55173;DHT22;41061;52.822;6.860;2023-12-04T04:21:31;0.80;99.90
55173;DHT22;41061;52.822;6.860;2023-12-04T04:23:56;0.80;99.90
55173;DHT22;41061;52.822;6.860;2023-12-04T04:26:22;0.70;99.90
55173;DHT22;41061;52.822;6.860;2023-12-04T04:28:48;0.80;99.90
55173;DHT22;41061;52.822;6.860;2023-12-04T04:31:13;0.80;99.90
55173;DHT22;41061;52.822;6.860;2023-12-04T04:33:39;0.80;99.90
55173;DHT22;41061;52.822;6.860;2023-12-04T04:36:05;0.70;99.90
55173;DHT22;41061;52.822;6.860;2023-12-04T04:38:31;0.80;99.90
55173;DHT22;41061;52.822;6.860;2023-12-04T04:40:56;0.80;99.90
55173;DHT22;41061;52.822;6.860;2023-12-04T04:43:22;0.80;99.90
55173;DHT22;41061;52.822;6.860;2023-12-04T04:45:48;0.80;99.90
55173;DHT22;41061;52.822;6.860;2023-12-04T04:48:13;0.80;99.90
55173;DHT22;41061;52.822;6.860;2023-12-04T04:50:39;0.80;99.90
55173;DHT22;41061;52.822;6.860;2023-12-04T04:53:05;0.80;99.90
55173;DHT22;41061;52.822;6.860;2023-12-04T04:55:30;0.80;99.90
55173;DHT22;41061;52.822;6.860;2023-12-04T04:57:57;0.80;99.90
55173;DHT22;41061;52.822;6.860;2023-12-04T05:00:23;0.80;99.90
55173;DHT22;41061;52.822;6.860;2023-12-04T05:02:48;0.80;99.90
55173;DHT22;41061;52.822;6.860;2023-12-04T05:05:14;0.80;99.90
55173;DHT22;41061;52.822;6.860;2023-12-04T05:07:40;0.80;99.90
55173;DHT22;41061;52.822;6.860;2023-12-04T05:10:06;0.80;99.90
55173;DHT22;41061;52.822;6.860;2023-12-04T05:12:31;0.90;99.90
55173;DHT22;41061;52.822;6.860;2023-12-04T05:14:57;0.90;99.90
55173;DHT22;41061;52.822;6.860;2023-12-04T05:17:23;0.80;99.90
55173;DHT22;41061;52.822;6.860;2023-12-04T05:19:48;0.90;99.90
55173;DHT22;41061;52.822;6.860;2023-12-04T05:22:14;0.90;99.90
55173;DHT22;41061;52.822;6.860;2023-12-04T05:24:40;0.90;99.90
55173;DHT22;41061;52.822;6.860;2023-12-04T05:27:05;0.90;99.90
55173;DHT22;41061;52.822;6.860;2023-12-04T05:29:31;0.90;99.90
55173;DHT22;41061;52.822;6.860;2023-12-04T05:31:57;0.90;99.90
55173;DHT22;41061;52.822;6.860;2023-12-04T05:34:24;0.90;99.90
55173;DHT22;41061;52.822;6.860;2023-12-04T05:36:49;0.90;99.90
55173;DHT22;41061;52.822;6.860;2023-12-04T05:39:15;0.80;99.90
55173;DHT22;41061;52.822;6.860;2023-12-04T05:41:40;0.80;99.90
55173;DHT22;41061;52.822;6.860;2023-12-04T05:44:06;0.90;99.90
55173;DHT22;41061;52.822;6.860;2023-12-04T05:46:32;0.90;99.90
55173;DHT22;41061;52.822;6.860;2023-12-04T05:48:58;0.80;99.90
55173;DHT22;41061;52.822;6.860;2023-12-04T05:51:23;0.90;99.90
55173;DHT22;41061;52.822;6.860;2023-12-04T05:53:49;0.90;99.90
55173;DHT22;41061;52.822;6.860;2023-12-04T05:56:15;0.90;99.90
55173;DHT22;41061;52.822;6.860;2023-12-04T05:58:41;0.90;99.90
55173;DHT22;41061;52.822;6.860;2023-12-04T06:01:06;0.90;99.90
55173;DHT22;41061;52.822;6.860;2023-12-04T06:03:33;0.90;99.90
55173;DHT22;41061;52.822;6.860;2023-12-04T06:05:58;1.00;99.90
55173;DHT22;41061;52.822;6.860;2023-12-04T06:08:24;1.00;99.90
55173;DHT22;41061;52.822;6.860;2023-12-04T06:10:50;1.00;99.90
55173;DHT22;41061;52.822;6.860;2023-12-04T06:13:15;1.00;99.90
55173;DHT22;41061;52.822;6.860;2023-12-04T06:15:41;1.00;99.90
55173;DHT22;41061;52.822;6.860;2023-12-04T06:18:08;1.00;99.90
55173;DHT22;41061;52.822;6.860;2023-12-04T06:20:33;1.00;99.90
55173;DHT22;41061;52.822;6.860;2023-12-04T06:22:59;1.10;99.90
55173;DHT22;41061;52.822;6.860;2023-12-04T06:25:25;1.00;99.90
55173;DHT22;41061;52.822;6.860;2023-12-04T06:27:51;1.00;99.90
55173;DHT22;41061;52.822;6.860;2023-12-04T06:30:18;1.00;99.90
55173;DHT22;41061;52.822;6.860;2023-12-04T06:32:43;1.00;99.90
55173;DHT22;41061;52.822;6.860;2023-12-04T06:35:10;1.00;99.90
55173;DHT22;41061;52.822;6.860;2023-12-04T06:37:38;1.00;99.90
55173;DHT22;41061;52.822;6.860;2023-12-04T06:40:05;1.00;99.90
55173;DHT22;41061;52.822;6.860;2023-12-04T06:42:35;1.00;99.90
55173;DHT22;41061;52.822;6.860;2023-12-04T06:45:01;1.00;99.90
55173;DHT22;41061;52.822;6.860;2023-12-04T06:47:28;1.00;99.90
55173;DHT22;41061;52.822;6.860;2023-12-04T06:49:55;0.90;99.90
55173;DHT22;41061;52.822;6.860;2023-12-04T06:52:21;0.90;99.90
55173;DHT22;41061;52.822;6.860;2023-12-04T06:54:47;0.90;99.90
55173;DHT22;41061;52.822;6.860;2023-12-04T06:57:12;0.90;99.90
55173;DHT22;41061;52.822;6.860;2023-12-04T06:59:41;0.90;99.90
55173;DHT22;41061;52.822;6.860;2023-12-04T07:02:07;0.90;99.90
55173;DHT22;41061;52.822;6.860;2023-12-04T07:04:33;0.90;99.90
55173;DHT22;41061;52.822;6.860;2023-12-04T07:06:59;0.90;99.90
55173;DHT22;41061;52.822;6.860;2023-12-04T07:09:31;0.90;99.90
55173;DHT22;41061;52.822;6.860;2023-12-04T07:11:58;0.90;99.90
55173;DHT22;41061;52.822;6.860;2023-12-04T07:14:23;0.90;99.90
55173;DHT22;41061;52.822;6.860;2023-12-04T07:16:49;0.90;99.90
55173;DHT22;41061;52.822;6.860;2023-12-04T07:19:15;0.90;99.90
55173;DHT22;41061;52.822;6.860;2023-12-04T07:21:42;0.90;99.90
55173;DHT22;41061;52.822;6.860;2023-12-04T07:24:08;1.00;99.90
55173;DHT22;41061;52.822;6.860;2023-12-04T07:26:34;1.00;99.90
55173;DHT22;41061;52.822;6.860;2023-12-04T07:29:01;1.00;99.90
55173;DHT22;41061;52.822;6.860;2023-12-04T07:31:27;1.00;99.90
55173;DHT22;41061;52.822;6.860;2023-12-04T07:33:53;1.00;99.90
55173;DHT22;41061;52.822;6.860;2023-12-04T07:36:19;1.00;99.90
55173;DHT22;41061;52.822;6.860;2023-12-04T07:38:45;0.90;99.90
55173;DHT22;41061;52.822;6.860;2023-12-04T07:41:11;0.90;99.90
55173;DHT22;41061;52.822;6.860;2023-12-04T07:43:37;0.90;99.90
55173;DHT22;41061;52.822;6.860;2023-12-04T07:46:03;0.90;99.90
55173;DHT22;41061;52.822;6.860;2023-12-04T07:48:30;1.00;99.90
55173;DHT22;41061;52.822;6.860;2023-12-04T07:50:56;0.90;99.90
55173;DHT22;41061;52.822;6.860;2023-12-04T07:53:21;1.00;99.90
55173;DHT22;41061;52.822;6.860;2023-12-04T07:55:48;1.00;99.90
55173;DHT22;41061;52.822;6.860;2023-12-04T07:58:17;1.00;99.90
55173;DHT22;41061;52.822;6.860;2023-12-04T08:00:44;1.00;99.90
55173;DHT22;41061;52.822;6.860;2023-12-04T08:03:09;1.00;99.90
55173;DHT22;41061;52.822;6.860;2023-12-04T08:05:35;1.00;99.90
55173;DHT22;41061;52.822;6.860;2023-12-04T08:08:01;1.00;99.90
55173;DHT22;41061;52.822;6.860;2023-12-04T08:10:27;1.00;99.90
55173;DHT22;41061;52.822;6.860;2023-12-04T08:12:52;1.00;99.90
55173;DHT22;41061;52.822;6.860;2023-12-04T08:15:18;1.10;99.90
55173;DHT22;41061;52.822;6.860;2023-12-04T08:17:44;1.10;99.90
55173;DHT22;41061;52.822;6.860;2023-12-04T08:20:10;1.10;99.90
55173;DHT22;41061;52.822;6.860;2023-12-04T08:22:41;1.10;99.90
55173;DHT22;41061;52.822;6.860;2023-12-04T08:25:07;1.10;99.90
55173;DHT22;41061;52.822;6.860;2023-12-04T08:27:34;1.10;99.90
55173;DHT22;41061;52.822;6.860;2023-12-04T08:29:59;1.10;99.90
55173;DHT22;41061;52.822;6.860;2023-12-04T08:32:25;1.10;99.90
55173;DHT22;41061;52.822;6.860;2023-12-04T08:34:52;1.10;99.90
55173;DHT22;41061;52.822;6.860;2023-12-04T08:37:18;1.20;99.90
55173;DHT22;41061;52.822;6.860;2023-12-04T08:39:44;1.20;99.90
55173;DHT22;41061;52.822;6.860;2023-12-04T08:42:11;1.20;99.90
55173;DHT22;41061;52.822;6.860;2023-12-04T08:44:37;1.20;99.90
55173;DHT22;41061;52.822;6.860;2023-12-04T08:47:03;1.20;99.90
55173;DHT22;41061;52.822;6.860;2023-12-04T08:49:28;1.30;99.90
55173;DHT22;41061;52.822;6.860;2023-12-04T08:51:54;1.30;99.90
55173;DHT22;41061;52.822;6.860;2023-12-04T08:54:20;1.30;99.90
55173;DHT22;41061;52.822;6.860;2023-12-04T08:56:45;1.30;99.90
55173;DHT22;41061;52.822;6.860;2023-12-04T08:59:11;1.30;99.90
55173;DHT22;41061;52.822;6.860;2023-12-04T09:01:38;1.30;99.90
55173;DHT22;41061;52.822;6.860;2023-12-04T09:04:04;1.40;99.90
55173;DHT22;41061;52.822;6.860;2023-12-04T09:06:30;1.40;99.90
55173;DHT22;41061;52.822;6.860;2023-12-04T09:08:56;1.40;99.90
55173;DHT22;41061;52.822;6.860;2023-12-04T09:11:22;1.40;99.90
55173;DHT22;41061;52.822;6.860;2023-12-04T09:13:47;1.50;99.90
55173;DHT22;41061;52.822;6.860;2023-12-04T09:16:13;1.50;99.90
55173;DHT22;41061;52.822;6.860;2023-12-04T09:18:39;1.50;99.90
55173;DHT22;41061;52.822;6.860;2023-12-04T09:21:05;1.50;99.90
55173;DHT22;41061;52.822;6.860;2023-12-04T09:23:31;1.60;99.90
55173;DHT22;41061;52.822;6.860;2023-12-04T09:25:57;1.60;99.90
55173;DHT22;41061;52.822;6.860;2023-12-04T09:28:22;1.60;99.90
55173;DHT22;41061;52.822;6.860;2023-12-04T09:30:48;1.60;99.90
55173;DHT22;41061;52.822;6.860;2023-12-04T09:33:14;1.70;99.90
55173;DHT22;41061;52.822;6.860;2023-12-04T09:35:39;1.70;99.90
55173;DHT22;41061;52.822;6.860;2023-12-04T09:38:05;1.80;99.90
55173;DHT22;41061;52.822;6.860;2023-12-04T09:40:31;1.80;99.90
55173;DHT22;41061;52.822;6.860;2023-12-04T09:42:57;1.80;99.90
55173;DHT22;41061;52.822;6.860;2023-12-04T09:45:24;1.80;99.90
55173;DHT22;41061;52.822;6.860;2023-12-04T09:47:50;1.90;99.90
55173;DHT22;41061;52.822;6.860;2023-12-04T09:50:17;1.90;99.90
55173;DHT22;41061;52.822;6.860;2023-12-04T09:52:51;1.90;99.90
55173;DHT22;41061;52.822;6.860;2023-12-04T09:55:17;1.90;99.90
55173;DHT22;41061;52.822;6.860;2023-12-04T09:57:46;2.00;99.90
55173;DHT22;41061;52.822;6.860;2023-12-04T10:00:13;2.00;99.90
55173;DHT22;41061;52.822;6.860;2023-12-04T10:02:40;2.00;99.90
55173;DHT22;41061;52.822;6.860;2023-12-04T10:05:07;2.00;99.90
55173;DHT22;41061;52.822;6.860;2023-12-04T10:07:33;2.00;99.90
55173;DHT22;41061;52.822;6.860;2023-12-04T10:09:58;2.10;99.90
55173;DHT22;41061;52.822;6.860;2023-12-04T10:35:14;2.40;99.90
55173;DHT22;41061;52.822;6.860;2023-12-04T10:37:40;2.40;99.90
55173;DHT22;41061;52.822;6.860;2023-12-04T10:40:06;2.40;99.90
55173;DHT22;41061;52.822;6.860;2023-12-04T10:42:35;2.40;99.90
55173;DHT22;41061;52.822;6.860;2023-12-04T10:45:01;2.40;99.90
55173;DHT22;41061;52.822;6.860;2023-12-04T10:47:29;2.50;99.90
55173;DHT22;41061;52.822;6.860;2023-12-04T10:49:56;2.50;99.90
55173;DHT22;41061;52.822;6.860;2023-12-04T10:52:22;2.50;99.90
55173;DHT22;41061;52.822;6.860;2023-12-04T10:54:48;2.50;99.90
55173;DHT22;41061;52.822;6.860;2023-12-04T10:57:27;2.50;99.90
55173;DHT22;41061;52.822;6.860;2023-12-04T10:59:58;2.50;99.90
55173;DHT22;41061;52.822;6.860;2023-12-04T11:02:29;2.50;99.90
55173;DHT22;41061;52.822;6.860;2023-12-04T11:05:08;2.60;99.90
55173;DHT22;41061;52.822;6.860;2023-12-04T11:07:41;2.60;99.90
55173;DHT22;41061;52.822;6.860;2023-12-04T11:10:11;2.60;99.90
55173;DHT22;41061;52.822;6.860;2023-12-04T11:12:40;2.60;99.90
55173;DHT22;41061;52.822;6.860;2023-12-04T11:15:13;2.60;99.90
55173;DHT22;41061;52.822;6.860;2023-12-04T11:17:43;2.60;99.90
55173;DHT22;41061;52.822;6.860;2023-12-04T11:20:15;2.60;99.90
55173;DHT22;41061;52.822;6.860;2023-12-04T11:22:45;2.50;99.90
55173;DHT22;41061;52.822;6.860;2023-12-04T11:25:13;2.60;99.90
55173;DHT22;41061;52.822;6.860;2023-12-04T11:27:40;2.50;99.90
55173;DHT22;41061;52.822;6.860;2023-12-04T11:30:07;2.50;99.90
55173;DHT22;41061;52.822;6.860;2023-12-04T11:32:44;2.50;99.90
55173;DHT22;41061;52.822;6.860;2023-12-04T11:35:15;2.50;99.90
55173;DHT22;41061;52.822;6.860;2023-12-04T11:37:44;2.60;99.90
55173;DHT22;41061;52.822;6.860;2023-12-04T11:40:15;2.60;99.90
55173;DHT22;41061;52.822;6.860;2023-12-04T11:42:41;2.60;99.90
55173;DHT22;41061;52.822;6.860;2023-12-04T11:45:08;2.60;99.90
55173;DHT22;41061;52.822;6.860;2023-12-04T11:47:55;2.60;99.90
55173;DHT22;41061;52.822;6.860;2023-12-04T11:50:24;2.60;99.90
55173;DHT22;41061;52.822;6.860;2023-12-04T11:52:50;2.60;99.90
55173;DHT22;41061;52.822;6.860;2023-12-04T11:55:18;2.60;99.90
55173;DHT22;41061;52.822;6.860;2023-12-04T11:57:45;2.70;99.90
55173;DHT22;41061;52.822;6.860;2023-12-04T12:00:18;2.70;99.90
55173;DHT22;41061;52.822;6.860;2023-12-04T12:05:23;2.70;99.90
55173;DHT22;41061;52.822;6.860;2023-12-04T12:07:49;2.70;99.90
55173;DHT22;41061;52.822;6.860;2023-12-04T12:10:18;2.80;99.90
55173;DHT22;41061;52.822;6.860;2023-12-04T12:12:44;2.70;99.90
55173;DHT22;41061;52.822;6.860;2023-12-04T12:15:10;2.70;99.90
55173;DHT22;41061;52.822;6.860;2023-12-04T12:17:40;2.80;99.90
55173;DHT22;41061;52.822;6.860;2023-12-04T12:20:10;2.70;99.90
55173;DHT22;41061;52.822;6.860;2023-12-04T12:22:37;2.70;99.90
55173;DHT22;41061;52.822;6.860;2023-12-04T12:25:12;2.70;99.90
55173;DHT22;41061;52.822;6.860;2023-12-04T12:27:39;2.80;99.90
55173;DHT22;41061;52.822;6.860;2023-12-04T12:30:05;2.80;99.90
55173;DHT22;41061;52.822;6.860;2023-12-04T12:32:32;2.80;99.90
55173;DHT22;41061;52.822;6.860;2023-12-04T12:34:58;2.80;99.90
55173;DHT22;41061;52.822;6.860;2023-12-04T12:37:24;2.80;99.90
55173;DHT22;41061;52.822;6.860;2023-12-04T12:39:51;2.80;99.90
55173;DHT22;41061;52.822;6.860;2023-12-04T12:42:29;2.80;99.90
55173;DHT22;41061;52.822;6.860;2023-12-04T12:44:59;2.80;99.90
55173;DHT22;41061;52.822;6.860;2023-12-04T12:47:25;2.80;99.90
55173;DHT22;41061;52.822;6.860;2023-12-04T12:49:52;2.80;99.90
55173;DHT22;41061;52.822;6.860;2023-12-04T12:52:18;2.80;99.90
55173;DHT22;41061;52.822;6.860;2023-12-04T12:54:45;2.80;99.90
55173;DHT22;41061;52.822;6.860;2023-12-04T12:57:11;2.80;99.90
55173;DHT22;41061;52.822;6.860;2023-12-04T12:59:40;2.70;99.90
55173;DHT22;41061;52.822;6.860;2023-12-04T13:02:07;2.70;99.90
55173;DHT22;41061;52.822;6.860;2023-12-04T13:04:37;2.80;99.90
55173;DHT22;41061;52.822;6.860;2023-12-04T13:07:03;2.80;99.90
55173;DHT22;41061;52.822;6.860;2023-12-04T13:09:29;2.70;99.90
55173;DHT22;41061;52.822;6.860;2023-12-04T13:11:55;2.80;99.90
55173;DHT22;41061;52.822;6.860;2023-12-04T13:14:21;2.70;99.90
55173;DHT22;41061;52.822;6.860;2023-12-04T13:16:46;2.80;99.90
55173;DHT22;41061;52.822;6.860;2023-12-04T13:19:12;2.70;99.90
55173;DHT22;41061;52.822;6.860;2023-12-04T13:21:38;2.70;99.90
55173;DHT22;41061;52.822;6.860;2023-12-04T13:24:04;2.70;99.90
55173;DHT22;41061;52.822;6.860;2023-12-04T13:26:33;2.70;99.90
55173;DHT22;41061;52.822;6.860;2023-12-04T13:28:59;2.60;99.90
55173;DHT22;41061;52.822;6.860;2023-12-04T13:31:25;2.60;99.90
55173;DHT22;41061;52.822;6.860;2023-12-04T13:33:51;2.60;99.90
55173;DHT22;41061;52.822;6.860;2023-12-04T13:36:17;2.60;99.90
55173;DHT22;41061;52.822;6.860;2023-12-04T13:38:43;2.60;99.90
55173;DHT22;41061;52.822;6.860;2023-12-04T13:41:09;2.60;99.90
55173;DHT22;41061;52.822;6.860;2023-12-04T13:43:54;2.60;99.90
55173;DHT22;41061;52.822;6.860;2023-12-04T13:46:21;2.50;99.90
55173;DHT22;41061;52.822;6.860;2023-12-04T13:48:48;2.50;99.90
55173;DHT22;41061;52.822;6.860;2023-12-04T13:51:14;2.50;99.90
55173;DHT22;41061;52.822;6.860;2023-12-04T13:53:40;2.50;99.90
55173;DHT22;41061;52.822;6.860;2023-12-04T13:56:13;2.40;99.90
55173;DHT22;41061;52.822;6.860;2023-12-04T13:58:57;2.40;99.90
55173;DHT22;41061;52.822;6.860;2023-12-04T14:01:24;2.40;99.90
55173;DHT22;41061;52.822;6.860;2023-12-04T14:03:51;2.40;99.90
55173;DHT22;41061;52.822;6.860;2023-12-04T14:06:18;2.30;99.90
55173;DHT22;41061;52.822;6.860;2023-12-04T14:08:44;2.30;99.90
55173;DHT22;41061;52.822;6.860;2023-12-04T14:11:11;2.30;99.90
55173;DHT22;41061;52.822;6.860;2023-12-04T14:13:37;2.30;99.90
55173;DHT22;41061;52.822;6.860;2023-12-04T14:16:05;2.30;99.90
55173;DHT22;41061;52.822;6.860;2023-12-04T14:18:31;2.30;99.90
55173;DHT22;41061;52.822;6.860;2023-12-04T14:20:57;2.30;99.90
55173;DHT22;41061;52.822;6.860;2023-12-04T14:23:23;2.20;99.90
55173;DHT22;41061;52.822;6.860;2023-12-04T14:25:49;2.20;99.90
55173;DHT22;41061;52.822;6.860;2023-12-04T14:28:15;2.30;99.90
55173;DHT22;41061;52.822;6.860;2023-12-04T14:30:40;2.20;99.90
55173;DHT22;41061;52.822;6.860;2023-12-04T14:33:06;2.20;99.90
55173;DHT22;41061;52.822;6.860;2023-12-04T14:35:32;2.20;99.90
55173;DHT22;41061;52.822;6.860;2023-12-04T14:37:58;2.20;99.90
55173;DHT22;41061;52.822;6.860;2023-12-04T14:40:24;2.20;99.90
55173;DHT22;41061;52.822;6.860;2023-12-04T14:42:50;2.20;99.90
55173;DHT22;41061;52.822;6.860;2023-12-04T14:45:16;2.10;99.90
55173;DHT22;41061;52.822;6.860;2023-12-04T14:47:42;2.10;99.90
55173;DHT22;41061;52.822;6.860;2023-12-04T14:50:09;2.10;99.90
55173;DHT22;41061;52.822;6.860;2023-12-04T14:52:38;2.10;99.90
55173;DHT22;41061;52.822;6.860;2023-12-04T14:55:11;2.10;99.90
55173;DHT22;41061;52.822;6.860;2023-12-04T14:57:53;2.10;99.90
55173;DHT22;41061;52.822;6.860;2023-12-04T15:00:51;2.00;99.90
55173;DHT22;41061;52.822;6.860;2023-12-04T15:03:35;2.10;99.90
55173;DHT22;41061;52.822;6.860;2023-12-04T15:06:39;2.10;99.90
55173;DHT22;41061;52.822;6.860;2023-12-04T15:09:24;2.10;99.90
55173;DHT22;41061;52.822;6.860;2023-12-04T15:11:49;2.00;99.90
55173;DHT22;41061;52.822;6.860;2023-12-04T15:14:34;2.00;99.90
55173;DHT22;41061;52.822;6.860;2023-12-04T15:16:59;2.00;99.90
55173;DHT22;41061;52.822;6.860;2023-12-04T15:19:55;2.00;99.90
55173;DHT22;41061;52.822;6.860;2023-12-04T15:22:36;2.00;99.90
55173;DHT22;41061;52.822;6.860;2023-12-04T15:25:05;1.90;99.90
55173;DHT22;41061;52.822;6.860;2023-12-04T15:27:37;1.90;99.90
55173;DHT22;41061;52.822;6.860;2023-12-04T15:30:04;1.90;99.90
55173;DHT22;41061;52.822;6.860;2023-12-04T15:32:30;2.00;99.90
55173;DHT22;41061;52.822;6.860;2023-12-04T15:34:56;1.90;99.90
55173;DHT22;41061;52.822;6.860;2023-12-04T15:37:22;1.90;99.90
55173;DHT22;41061;52.822;6.860;2023-12-04T15:39:47;1.90;99.90
55173;DHT22;41061;52.822;6.860;2023-12-04T15:42:13;2.00;99.90
55173;DHT22;41061;52.822;6.860;2023-12-04T15:44:39;1.90;99.90
55173;DHT22;41061;52.822;6.860;2023-12-04T15:47:05;1.90;99.90
55173;DHT22;41061;52.822;6.860;2023-12-04T15:49:37;1.90;99.90
55173;DHT22;41061;52.822;6.860;2023-12-04T15:52:03;1.90;99.90
55173;DHT22;41061;52.822;6.860;2023-12-04T15:54:29;1.90;99.90
55173;DHT22;41061;52.822;6.860;2023-12-04T15:56:57;1.90;99.90
55173;DHT22;41061;52.822;6.860;2023-12-04T15:59:25;1.80;99.90
55173;DHT22;41061;52.822;6.860;2023-12-04T16:01:51;1.90;99.90
55173;DHT22;41061;52.822;6.860;2023-12-04T16:04:17;1.80;99.90
55173;DHT22;41061;52.822;6.860;2023-12-04T16:06:42;1.80;99.90
55173;DHT22;41061;52.822;6.860;2023-12-04T16:09:08;1.80;99.90